createdAt,value
2023-02-25T00:10:05.126Z,22.20
2023-02-25T00:20:15.428Z,21.90
2023-02-25T00:30:23.990Z,22.60
2023-02-25T00:40:34.587Z,22.40
2023-02-25T00:50:41.811Z,23.00
2023-02-25T01:00:52.083Z,23.70
2023-02-25T01:10:59.332Z,23.60
2023-02-25T01:21:08.333Z,23.20
2023-02-25T01:31:21.160Z,22.60
2023-02-25T01:41:30.792Z,23.00
2023-02-25T01:51:40.129Z,22.50
2023-02-25T02:01:49.081Z,26.20
2023-02-25T02:11:58.738Z,29.50
2023-02-25T02:22:14.877Z,31.30
2023-02-25T02:32:34.337Z,30.20
2023-02-25T02:42:46.978Z,31.10
2023-02-25T02:53:01.842Z,32.20
2023-02-25T03:03:13.277Z,33.60
2023-02-25T03:13:22.183Z,34.60
2023-02-25T03:23:34.299Z,34.60
2023-02-25T03:33:49.472Z,35.00
2023-02-25T03:44:20.376Z,35.30
2023-02-25T03:54:36.219Z,35.50
2023-02-25T04:04:43.564Z,35.40
2023-02-25T04:14:52.809Z,35.00
2023-02-25T04:25:00.159Z,34.70
2023-02-25T04:35:12.677Z,34.30
2023-02-25T04:45:20.289Z,35.90
2023-02-25T04:55:32.711Z,35.60
2023-02-25T05:05:39.571Z,34.40
2023-02-25T05:15:48.709Z,34.40
2023-02-25T05:25:55.925Z,34.00
2023-02-25T05:36:05.575Z,33.40
2023-02-25T05:46:14.895Z,33.40
2023-02-25T05:56:26.467Z,33.70
2023-02-25T06:06:34.654Z,31.80
2023-02-25T06:16:45.747Z,30.10
2023-02-25T06:27:20.757Z,29.60
2023-02-25T06:37:33.478Z,29.30
2023-02-25T06:47:40.694Z,28.90
2023-02-25T06:57:49.485Z,28.40
2023-02-25T07:07:56.749Z,28.20
2023-02-25T07:18:05.750Z,27.80
2023-02-25T07:28:13.171Z,27.50
2023-02-25T07:38:22.971Z,27.40
2023-02-25T07:48:30.156Z,27.50
2023-02-25T07:58:42.176Z,27.60
2023-02-25T08:08:51.682Z,27.50
2023-02-25T08:19:00.599Z,27.50
2023-02-25T08:29:07.734Z,27.50
2023-02-25T08:39:17.439Z,27.40
2023-02-25T08:49:24.727Z,27.30
2023-02-25T08:59:36.735Z,27.20
2023-02-25T09:09:43.925Z,27.20
2023-02-25T09:19:52.590Z,27.10
2023-02-25T09:29:59.915Z,27.00
2023-02-25T09:40:11.314Z,27.00
2023-02-25T09:50:25.596Z,26.90
2023-02-25T10:00:39.124Z,26.80
2023-02-25T10:10:57.143Z,26.70
2023-02-25T10:21:18.502Z,26.70
2023-02-25T10:32:01.261Z,26.60
2023-02-25T10:42:10.467Z,26.60
2023-02-25T10:52:19.568Z,26.50
2023-02-25T11:02:31.206Z,26.50
2023-02-25T11:12:45.542Z,26.40
2023-02-25T11:22:57.172Z,26.30
2023-02-25T11:33:09.808Z,26.30
2023-02-25T11:53:45.913Z,26.20
2023-02-25T12:04:27.892Z,26.10
2023-02-25T12:15:03.942Z,26.10
2023-02-25T12:25:27.188Z,26.00
2023-02-25T12:36:04.844Z,26.00
2023-02-25T12:46:29.683Z,26.50
2023-02-25T12:56:58.830Z,25.90
2023-02-25T13:07:33.323Z,25.80
2023-02-25T13:17:55.737Z,25.80
2023-02-25T13:28:24.623Z,25.80
2023-02-25T13:38:42.266Z,25.80
2023-02-25T13:49:43.522Z,25.70
2023-02-25T14:00:20.240Z,25.60
2023-02-25T14:10:45.395Z,25.60
2023-02-25T14:21:05.832Z,25.60
2023-02-25T14:31:23.780Z,25.60
2023-02-25T14:41:42.291Z,25.60
2023-02-25T14:52:24.365Z,25.50
2023-02-25T15:02:55.558Z,25.50
2023-02-25T15:13:34.167Z,25.40
2023-02-25T15:23:54.138Z,25.40
2023-02-25T15:34:46.334Z,25.40
2023-02-25T15:45:41.930Z,25.40
2023-02-25T15:55:51.296Z,25.00
2023-02-25T16:06:06.665Z,24.50
2023-02-25T16:16:17.204Z,25.00
2023-02-25T16:26:56.283Z,25.50
2023-02-25T16:37:16.386Z,25.90
2023-02-25T16:47:29.348Z,26.20
2023-02-25T16:58:06.210Z,26.30
2023-02-25T17:08:20.391Z,26.80
2023-02-25T17:18:33.657Z,26.70
2023-02-25T17:30:04.201Z,26.40
2023-02-25T17:41:05.090Z,26.00
2023-02-25T17:52:10.165Z,25.20
2023-02-25T18:13:32.341Z,22.30
2023-02-25T18:24:20.028Z,21.50
2023-02-25T18:34:51.825Z,21.20
2023-02-25T18:45:12.161Z,20.80
2023-02-25T18:55:43.553Z,20.80
2023-02-25T19:06:13.904Z,20.90
2023-02-25T19:16:27.278Z,20.90
2023-02-25T19:26:43.490Z,21.00
2023-02-25T19:48:39.504Z,21.00
2023-02-25T19:58:56.639Z,21.20
2023-02-25T20:09:09.589Z,21.40
2023-02-25T20:19:36.927Z,21.60
2023-02-25T20:30:56.613Z,21.80
2023-02-25T20:41:13.902Z,22.30
2023-02-25T20:51:26.479Z,22.70
2023-02-25T21:12:29.808Z,23.40
2023-02-25T21:22:37.261Z,23.80
2023-02-25T21:32:53.214Z,24.30
2023-02-25T21:43:05.788Z,24.70
2023-02-25T21:53:15.809Z,24.90
2023-02-25T22:03:22.878Z,25.00
2023-02-25T22:13:42.530Z,25.40
2023-02-25T22:23:50.873Z,25.60
2023-02-25T22:34:00.296Z,25.90
2023-02-25T22:44:08.872Z,26.10
2023-02-25T22:54:23.411Z,26.20
2023-02-25T23:04:30.784Z,26.30
2023-02-25T23:14:42.498Z,26.10
2023-02-25T23:24:55.237Z,25.90
2023-02-25T23:35:04.370Z,25.70
2023-02-25T23:45:15.669Z,25.60
2023-02-25T23:55:25.698Z,25.40
